Weather at Ingham Ranch Landing Strip

Public forecast

Using degrees Fahrenheit for public forecast. Weather courtesy of forecast.io.

Closest aviation weather report (METAR) to Ingham Ranch Landing Strip

Closest report is Sonora Municipal Airport, 9.0 nm (16.7 km) E.

2024/06/18 19:15 (retrieved 24 minutes ago)

KSOA 181915Z AUTO 16018G23KT 10SM SCT041 SCT065 SCT085 A2987 RMK AO2

Closest aviation forecast (TAF) to Ingham Ranch Landing Strip

Closest forecast is Sonora Municipal Airport, 9.0 nm (16.7 km) E.

2024/06/18 18:42 (retrieved 57 minutes ago)

TAF KSOA 181740Z 1818/1918 15016G23KT P6SM BKN050 FM190100 14012G18KT P6SM SCT250 FM191000 14008KT P6SM OVC015